sensor_id;sensor_type;location;lat;lon;timestamp;temperature;humidity
51215;DHT22;63849;47.546;19.254;2023-06-22T00:00:57;23.00;72.30
51215;DHT22;63849;47.546;19.254;2023-06-22T00:03:24;22.70;73.10
51215;DHT22;63849;47.546;19.254;2023-06-22T00:05:50;22.70;73.80
51215;DHT22;63849;47.546;19.254;2023-06-22T00:08:17;22.50;74.40
51215;DHT22;63849;47.546;19.254;2023-06-22T00:10:44;22.70;74.80
51215;DHT22;63849;47.546;19.254;2023-06-22T00:13:11;22.80;73.80
51215;DHT22;63849;47.546;19.254;2023-06-22T00:15:39;22.80;74.60
51215;DHT22;63849;47.546;19.254;2023-06-22T00:18:09;22.90;75.00
51215;DHT22;63849;47.546;19.254;2023-06-22T00:20:35;22.80;75.90
51215;DHT22;63849;47.546;19.254;2023-06-22T00:23:06;22.90;75.90
51215;DHT22;63849;47.546;19.254;2023-06-22T00:25:32;22.80;76.20
51215;DHT22;63849;47.546;19.254;2023-06-22T00:27:58;22.70;76.80
51215;DHT22;63849;47.546;19.254;2023-06-22T00:30:24;22.60;77.10
51215;DHT22;63849;47.546;19.254;2023-06-22T00:32:51;22.70;76.80
51215;DHT22;63849;47.546;19.254;2023-06-22T00:35:16;22.70;76.70
51215;DHT22;63849;47.546;19.254;2023-06-22T00:37:43;22.70;76.90
51215;DHT22;63849;47.546;19.254;2023-06-22T00:40:10;22.60;77.10
51215;DHT22;63849;47.546;19.254;2023-06-22T00:42:40;22.60;77.40
51215;DHT22;63849;47.546;19.254;2023-06-22T00:45:06;22.50;77.40
51215;DHT22;63849;47.546;19.254;2023-06-22T00:47:34;22.40;77.80
51215;DHT22;63849;47.546;19.254;2023-06-22T00:50:00;22.50;77.80
51215;DHT22;63849;47.546;19.254;2023-06-22T00:52:26;22.60;77.80
51215;DHT22;63849;47.546;19.254;2023-06-22T00:54:56;22.50;77.70
51215;DHT22;63849;47.546;19.254;2023-06-22T00:57:24;22.50;78.00
51215;DHT22;63849;47.546;19.254;2023-06-22T00:59:54;22.50;78.00
51215;DHT22;63849;47.546;19.254;2023-06-22T01:02:20;22.50;78.00
51215;DHT22;63849;47.546;19.254;2023-06-22T01:04:46;22.40;77.90
51215;DHT22;63849;47.546;19.254;2023-06-22T01:07:42;22.50;77.80
51215;DHT22;63849;47.546;19.254;2023-06-22T01:10:27;22.40;77.80
51215;DHT22;63849;47.546;19.254;2023-06-22T01:15:57;22.40;78.10
51215;DHT22;63849;47.546;19.254;2023-06-22T01:18:28;22.40;78.00
51215;DHT22;63849;47.546;19.254;2023-06-22T01:20:54;22.40;77.80
51215;DHT22;63849;47.546;19.254;2023-06-22T01:23:26;22.30;78.00
51215;DHT22;63849;47.546;19.254;2023-06-22T01:28:47;22.40;78.10
51215;DHT22;63849;47.546;19.254;2023-06-22T01:31:16;22.30;78.00
51215;DHT22;63849;47.546;19.254;2023-06-22T01:33:48;22.40;78.00
51215;DHT22;63849;47.546;19.254;2023-06-22T01:36:15;22.40;78.10
51215;DHT22;63849;47.546;19.254;2023-06-22T01:38:42;22.30;78.40
51215;DHT22;63849;47.546;19.254;2023-06-22T01:41:09;22.20;78.50
51215;DHT22;63849;47.546;19.254;2023-06-22T01:43:36;22.30;78.40
51215;DHT22;63849;47.546;19.254;2023-06-22T01:46:02;22.40;78.40
51215;DHT22;63849;47.546;19.254;2023-06-22T01:48:29;22.30;78.20
51215;DHT22;63849;47.546;19.254;2023-06-22T01:50:55;22.10;78.60
51215;DHT22;63849;47.546;19.254;2023-06-22T01:53:22;22.10;78.60
51215;DHT22;63849;47.546;19.254;2023-06-22T01:55:48;22.10;78.50
51215;DHT22;63849;47.546;19.254;2023-06-22T01:58:14;22.10;78.30
51215;DHT22;63849;47.546;19.254;2023-06-22T02:00:48;21.90;78.90
51215;DHT22;63849;47.546;19.254;2023-06-22T02:03:22;22.00;78.80
51215;DHT22;63849;47.546;19.254;2023-06-22T02:06:25;22.20;78.40
51215;DHT22;63849;47.546;19.254;2023-06-22T02:08:59;22.10;78.00
51215;DHT22;63849;47.546;19.254;2023-06-22T02:11:28;22.10;78.10
51215;DHT22;63849;47.546;19.254;2023-06-22T02:13:56;22.10;78.10
51215;DHT22;63849;47.546;19.254;2023-06-22T02:16:23;22.10;78.00
51215;DHT22;63849;47.546;19.254;2023-06-22T02:18:50;22.00;78.10
51215;DHT22;63849;47.546;19.254;2023-06-22T02:21:19;21.90;78.40
51215;DHT22;63849;47.546;19.254;2023-06-22T02:23:45;21.90;78.40
51215;DHT22;63849;47.546;19.254;2023-06-22T02:26:12;21.90;78.30
51215;DHT22;63849;47.546;19.254;2023-06-22T02:28:38;21.90;77.90
51215;DHT22;63849;47.546;19.254;2023-06-22T02:31:03;21.90;78.00
51215;DHT22;63849;47.546;19.254;2023-06-22T02:33:29;22.00;77.80
51215;DHT22;63849;47.546;19.254;2023-06-22T02:35:55;22.00;77.70
51215;DHT22;63849;47.546;19.254;2023-06-22T02:38:21;22.00;77.80
51215;DHT22;63849;47.546;19.254;2023-06-22T02:40:50;22.00;77.90
51215;DHT22;63849;47.546;19.254;2023-06-22T02:43:16;22.00;77.80
51215;DHT22;63849;47.546;19.254;2023-06-22T02:45:42;22.00;77.80
51215;DHT22;63849;47.546;19.254;2023-06-22T02:48:08;22.00;77.70
51215;DHT22;63849;47.546;19.254;2023-06-22T02:50:33;22.00;77.60
51215;DHT22;63849;47.546;19.254;2023-06-22T02:52:59;22.10;77.40
51215;DHT22;63849;47.546;19.254;2023-06-22T02:55:25;22.10;77.60
51215;DHT22;63849;47.546;19.254;2023-06-22T02:57:50;22.00;77.70
51215;DHT22;63849;47.546;19.254;2023-06-22T03:00:19;22.00;77.60
51215;DHT22;63849;47.546;19.254;2023-06-22T03:02:48;22.10;77.80
51215;DHT22;63849;47.546;19.254;2023-06-22T03:05:15;22.10;77.70
51215;DHT22;63849;47.546;19.254;2023-06-22T03:07:43;21.90;78.00
51215;DHT22;63849;47.546;19.254;2023-06-22T03:10:10;21.90;78.30
51215;DHT22;63849;47.546;19.254;2023-06-22T03:12:37;21.90;78.10
51215;DHT22;63849;47.546;19.254;2023-06-22T03:15:08;21.90;78.30
51215;DHT22;63849;47.546;19.254;2023-06-22T03:17:35;21.80;78.60
51215;DHT22;63849;47.546;19.254;2023-06-22T03:20:02;21.90;78.30
51215;DHT22;63849;47.546;19.254;2023-06-22T03:22:35;21.80;78.60
51215;DHT22;63849;47.546;19.254;2023-06-22T03:25:01;21.80;78.30
51215;DHT22;63849;47.546;19.254;2023-06-22T03:27:27;21.90;78.00
51215;DHT22;63849;47.546;19.254;2023-06-22T03:29:53;22.00;77.80
51215;DHT22;63849;47.546;19.254;2023-06-22T03:32:19;22.10;77.40
51215;DHT22;63849;47.546;19.254;2023-06-22T03:34:44;22.10;77.40
51215;DHT22;63849;47.546;19.254;2023-06-22T03:37:13;22.20;77.60
51215;DHT22;63849;47.546;19.254;2023-06-22T03:39:41;22.20;77.50
51215;DHT22;63849;47.546;19.254;2023-06-22T03:42:07;22.40;77.30
51215;DHT22;63849;47.546;19.254;2023-06-22T03:44:33;22.40;77.40
51215;DHT22;63849;47.546;19.254;2023-06-22T03:46:58;22.40;77.30
51215;DHT22;63849;47.546;19.254;2023-06-22T03:49:24;22.40;77.40
51215;DHT22;63849;47.546;19.254;2023-06-22T03:51:50;22.40;77.20
51215;DHT22;63849;47.546;19.254;2023-06-22T03:54:15;22.40;77.10
51215;DHT22;63849;47.546;19.254;2023-06-22T03:56:41;22.50;76.90
51215;DHT22;63849;47.546;19.254;2023-06-22T03:59:07;22.50;77.10
51215;DHT22;63849;47.546;19.254;2023-06-22T04:01:33;22.50;76.30
51215;DHT22;63849;47.546;19.254;2023-06-22T04:03:58;22.50;76.10
51215;DHT22;63849;47.546;19.254;2023-06-22T04:06:24;22.60;75.80
51215;DHT22;63849;47.546;19.254;2023-06-22T04:08:50;22.70;75.60
51215;DHT22;63849;47.546;19.254;2023-06-22T04:11:19;22.80;75.60
51215;DHT22;63849;47.546;19.254;2023-06-22T04:13:45;22.90;75.60
51215;DHT22;63849;47.546;19.254;2023-06-22T04:16:11;22.90;75.60
51215;DHT22;63849;47.546;19.254;2023-06-22T04:18:36;22.90;75.80
51215;DHT22;63849;47.546;19.254;2023-06-22T04:21:02;23.00;75.70
51215;DHT22;63849;47.546;19.254;2023-06-22T04:23:28;23.10;76.00
51215;DHT22;63849;47.546;19.254;2023-06-22T04:25:54;23.20;75.90
51215;DHT22;63849;47.546;19.254;2023-06-22T04:28:22;23.20;75.90
51215;DHT22;63849;47.546;19.254;2023-06-22T04:30:48;23.30;76.00
51215;DHT22;63849;47.546;19.254;2023-06-22T04:33:14;23.40;75.70
51215;DHT22;63849;47.546;19.254;2023-06-22T04:35:40;23.40;75.70
51215;DHT22;63849;47.546;19.254;2023-06-22T04:38:09;23.40;76.00
51215;DHT22;63849;47.546;19.254;2023-06-22T04:40:35;23.40;76.10
51215;DHT22;63849;47.546;19.254;2023-06-22T04:43:01;23.40;75.90
51215;DHT22;63849;47.546;19.254;2023-06-22T04:45:28;23.40;75.50
51215;DHT22;63849;47.546;19.254;2023-06-22T04:47:55;23.50;75.00
51215;DHT22;63849;47.546;19.254;2023-06-22T04:50:21;23.60;74.30
51215;DHT22;63849;47.546;19.254;2023-06-22T04:52:47;23.60;73.60
51215;DHT22;63849;47.546;19.254;2023-06-22T04:55:14;23.70;73.20
51215;DHT22;63849;47.546;19.254;2023-06-22T04:57:48;23.80;73.30
51215;DHT22;63849;47.546;19.254;2023-06-22T05:00:26;24.00;72.80
51215;DHT22;63849;47.546;19.254;2023-06-22T05:02:52;24.20;72.60
51215;DHT22;63849;47.546;19.254;2023-06-22T05:05:18;24.30;72.40
51215;DHT22;63849;47.546;19.254;2023-06-22T05:07:45;24.40;72.00
51215;DHT22;63849;47.546;19.254;2023-06-22T05:10:13;24.50;71.30
51215;DHT22;63849;47.546;19.254;2023-06-22T05:12:40;24.80;71.10
51215;DHT22;63849;47.546;19.254;2023-06-22T05:15:07;24.90;69.10
51215;DHT22;63849;47.546;19.254;2023-06-22T05:17:34;25.00;69.30
51215;DHT22;63849;47.546;19.254;2023-06-22T05:20:01;25.40;69.00
51215;DHT22;63849;47.546;19.254;2023-06-22T05:22:27;25.50;68.40
51215;DHT22;63849;47.546;19.254;2023-06-22T05:24:53;25.90;67.90
51215;DHT22;63849;47.546;19.254;2023-06-22T05:27:19;26.20;66.80
51215;DHT22;63849;47.546;19.254;2023-06-22T05:29:44;26.40;66.20
51215;DHT22;63849;47.546;19.254;2023-06-22T05:32:10;26.50;65.50
51215;DHT22;63849;47.546;19.254;2023-06-22T05:34:36;26.80;65.20
51215;DHT22;63849;47.546;19.254;2023-06-22T05:37:03;27.00;64.70
51215;DHT22;63849;47.546;19.254;2023-06-22T05:39:28;27.20;63.90
51215;DHT22;63849;47.546;19.254;2023-06-22T05:41:54;27.40;62.10
51215;DHT22;63849;47.546;19.254;2023-06-22T05:44:20;27.50;61.80
51215;DHT22;63849;47.546;19.254;2023-06-22T05:46:46;27.80;61.70
51215;DHT22;63849;47.546;19.254;2023-06-22T05:49:14;28.10;61.10
51215;DHT22;63849;47.546;19.254;2023-06-22T05:51:40;28.10;60.80
51215;DHT22;63849;47.546;19.254;2023-06-22T05:54:06;28.40;61.60
51215;DHT22;63849;47.546;19.254;2023-06-22T05:56:33;28.40;60.30
51215;DHT22;63849;47.546;19.254;2023-06-22T05:58:59;28.40;61.50
51215;DHT22;63849;47.546;19.254;2023-06-22T06:01:25;28.70;60.50
51215;DHT22;63849;47.546;19.254;2023-06-22T06:03:51;28.70;60.20
51215;DHT22;63849;47.546;19.254;2023-06-22T06:06:18;28.60;58.70
51215;DHT22;63849;47.546;19.254;2023-06-22T06:08:46;28.90;57.80
51215;DHT22;63849;47.546;19.254;2023-06-22T06:11:12;29.00;56.70
51215;DHT22;63849;47.546;19.254;2023-06-22T06:13:38;29.60;54.80
51215;DHT22;63849;47.546;19.254;2023-06-22T06:16:04;29.80;54.50
51215;DHT22;63849;47.546;19.254;2023-06-22T06:18:30;29.80;53.60
51215;DHT22;63849;47.546;19.254;2023-06-22T06:20:56;30.00;53.00
51215;DHT22;63849;47.546;19.254;2023-06-22T06:23:23;30.00;53.90
51215;DHT22;63849;47.546;19.254;2023-06-22T06:25:49;30.10;53.60
51215;DHT22;63849;47.546;19.254;2023-06-22T06:28:15;30.60;51.70
51215;DHT22;63849;47.546;19.254;2023-06-22T06:30:41;31.00;51.40
51215;DHT22;63849;47.546;19.254;2023-06-22T06:33:06;31.50;51.20
51215;DHT22;63849;47.546;19.254;2023-06-22T06:35:34;31.90;48.80
51215;DHT22;63849;47.546;19.254;2023-06-22T06:38:00;31.90;49.20
51215;DHT22;63849;47.546;19.254;2023-06-22T06:40:26;32.50;47.40
51215;DHT22;63849;47.546;19.254;2023-06-22T06:42:52;32.90;46.60
51215;DHT22;63849;47.546;19.254;2023-06-22T06:45:19;32.70;46.20
51215;DHT22;63849;47.546;19.254;2023-06-22T06:47:45;33.50;46.00
51215;DHT22;63849;47.546;19.254;2023-06-22T06:50:12;34.10;43.50
51215;DHT22;63849;47.546;19.254;2023-06-22T06:52:38;33.70;45.00
51215;DHT22;63849;47.546;19.254;2023-06-22T06:55:05;34.10;42.80
51215;DHT22;63849;47.546;19.254;2023-06-22T06:57:34;34.00;42.80
51215;DHT22;63849;47.546;19.254;2023-06-22T07:00:00;34.60;42.90
51215;DHT22;63849;47.546;19.254;2023-06-22T07:02:27;34.50;43.20
51215;DHT22;63849;47.546;19.254;2023-06-22T07:04:55;34.60;43.40
51215;DHT22;63849;47.546;19.254;2023-06-22T07:07:21;34.80;41.80
51215;DHT22;63849;47.546;19.254;2023-06-22T07:09:47;35.00;40.70
51215;DHT22;63849;47.546;19.254;2023-06-22T07:12:13;34.50;41.00
51215;DHT22;63849;47.546;19.254;2023-06-22T07:14:38;34.70;40.90
51215;DHT22;63849;47.546;19.254;2023-06-22T07:17:04;34.40;41.10
51215;DHT22;63849;47.546;19.254;2023-06-22T07:19:30;34.40;41.50
51215;DHT22;63849;47.546;19.254;2023-06-22T07:21:56;33.90;40.40
51215;DHT22;63849;47.546;19.254;2023-06-22T07:24:24;34.40;39.50
51215;DHT22;63849;47.546;19.254;2023-06-22T07:26:50;35.10;39.60
51215;DHT22;63849;47.546;19.254;2023-06-22T07:29:17;35.20;38.40
51215;DHT22;63849;47.546;19.254;2023-06-22T07:31:45;36.00;36.90
51215;DHT22;63849;47.546;19.254;2023-06-22T07:34:11;36.40;37.20
51215;DHT22;63849;47.546;19.254;2023-06-22T07:36:37;36.50;37.20
51215;DHT22;63849;47.546;19.254;2023-06-22T07:39:03;37.00;33.40
51215;DHT22;63849;47.546;19.254;2023-06-22T07:41:29;36.00;34.00
51215;DHT22;63849;47.546;19.254;2023-06-22T07:43:55;36.50;35.10
51215;DHT22;63849;47.546;19.254;2023-06-22T07:46:22;36.80;35.70
51215;DHT22;63849;47.546;19.254;2023-06-22T07:48:47;36.50;35.40
51215;DHT22;63849;47.546;19.254;2023-06-22T07:51:13;36.40;36.00
51215;DHT22;63849;47.546;19.254;2023-06-22T07:53:43;36.20;36.10
51215;DHT22;63849;47.546;19.254;2023-06-22T07:56:13;36.30;35.50
51215;DHT22;63849;47.546;19.254;2023-06-22T07:58:39;35.80;37.40
51215;DHT22;63849;47.546;19.254;2023-06-22T08:01:05;35.00;38.10
51215;DHT22;63849;47.546;19.254;2023-06-22T08:03:32;34.60;38.80
51215;DHT22;63849;47.546;19.254;2023-06-22T08:05:58;34.40;40.20
51215;DHT22;63849;47.546;19.254;2023-06-22T08:08:24;34.00;40.40
51215;DHT22;63849;47.546;19.254;2023-06-22T08:10:49;33.50;39.00
51215;DHT22;63849;47.546;19.254;2023-06-22T08:13:15;33.00;42.10
51215;DHT22;63849;47.546;19.254;2023-06-22T08:15:41;32.70;42.50
51215;DHT22;63849;47.546;19.254;2023-06-22T08:18:07;32.40;43.40
51215;DHT22;63849;47.546;19.254;2023-06-22T08:20:32;31.90;43.40
51215;DHT22;63849;47.546;19.254;2023-06-22T08:22:59;31.50;44.60
51215;DHT22;63849;47.546;19.254;2023-06-22T08:25:30;31.40;45.30
51215;DHT22;63849;47.546;19.254;2023-06-22T08:27:56;31.20;44.80
51215;DHT22;63849;47.546;19.254;2023-06-22T08:30:22;31.00;46.00
51215;DHT22;63849;47.546;19.254;2023-06-22T08:32:48;30.90;46.90
51215;DHT22;63849;47.546;19.254;2023-06-22T08:35:14;30.80;47.90
51215;DHT22;63849;47.546;19.254;2023-06-22T08:37:40;30.70;47.70
51215;DHT22;63849;47.546;19.254;2023-06-22T08:40:07;30.70;48.30
51215;DHT22;63849;47.546;19.254;2023-06-22T08:42:35;30.60;48.20
51215;DHT22;63849;47.546;19.254;2023-06-22T08:45:00;30.60;47.00
51215;DHT22;63849;47.546;19.254;2023-06-22T08:47:29;30.50;47.50
51215;DHT22;63849;47.546;19.254;2023-06-22T08:49:55;30.40;46.40
51215;DHT22;63849;47.546;19.254;2023-06-22T08:52:21;30.40;48.60
51215;DHT22;63849;47.546;19.254;2023-06-22T08:54:48;30.30;46.80
51215;DHT22;63849;47.546;19.254;2023-06-22T08:57:14;30.40;50.10
51215;DHT22;63849;47.546;19.254;2023-06-22T08:59:42;30.40;49.80
51215;DHT22;63849;47.546;19.254;2023-06-22T09:02:09;30.30;50.40
51215;DHT22;63849;47.546;19.254;2023-06-22T09:04:35;30.30;49.10
51215;DHT22;63849;47.546;19.254;2023-06-22T09:07:02;30.30;50.10
51215;DHT22;63849;47.546;19.254;2023-06-22T09:09:28;30.30;49.80
51215;DHT22;63849;47.546;19.254;2023-06-22T09:11:54;30.20;48.90
51215;DHT22;63849;47.546;19.254;2023-06-22T09:14:20;30.40;51.50
51215;DHT22;63849;47.546;19.254;2023-06-22T09:16:46;30.40;50.70
51215;DHT22;63849;47.546;19.254;2023-06-22T09:19:11;30.40;50.30
51215;DHT22;63849;47.546;19.254;2023-06-22T09:21:37;30.30;50.30
51215;DHT22;63849;47.546;19.254;2023-06-22T09:24:04;30.40;50.00
51215;DHT22;63849;47.546;19.254;2023-06-22T09:26:29;30.30;51.20
51215;DHT22;63849;47.546;19.254;2023-06-22T09:28:55;30.30;50.10
51215;DHT22;63849;47.546;19.254;2023-06-22T09:31:21;30.30;49.10
51215;DHT22;63849;47.546;19.254;2023-06-22T09:33:54;30.30;48.70
51215;DHT22;63849;47.546;19.254;2023-06-22T09:36:21;30.20;50.00
51215;DHT22;63849;47.546;19.254;2023-06-22T09:38:48;30.10;49.40
51215;DHT22;63849;47.546;19.254;2023-06-22T09:41:15;30.00;51.80
51215;DHT22;63849;47.546;19.254;2023-06-22T09:43:41;29.90;51.10
51215;DHT22;63849;47.546;19.254;2023-06-22T09:46:07;29.80;49.20
51215;DHT22;63849;47.546;19.254;2023-06-22T09:48:34;29.90;51.80
51215;DHT22;63849;47.546;19.254;2023-06-22T09:51:00;29.90;51.00
51215;DHT22;63849;47.546;19.254;2023-06-22T09:53:26;29.90;52.30
51215;DHT22;63849;47.546;19.254;2023-06-22T09:55:52;30.00;52.70
51215;DHT22;63849;47.546;19.254;2023-06-22T09:58:18;30.00;51.40
51215;DHT22;63849;47.546;19.254;2023-06-22T10:00:43;30.10;51.80
51215;DHT22;63849;47.546;19.254;2023-06-22T10:03:09;30.20;49.50
51215;DHT22;63849;47.546;19.254;2023-06-22T10:05:35;30.00;49.00
51215;DHT22;63849;47.546;19.254;2023-06-22T10:08:00;30.00;51.20
51215;DHT22;63849;47.546;19.254;2023-06-22T10:10:26;29.90;51.80
51215;DHT22;63849;47.546;19.254;2023-06-22T10:12:57;30.00;51.50
51215;DHT22;63849;47.546;19.254;2023-06-22T10:15:24;29.90;53.30
51215;DHT22;63849;47.546;19.254;2023-06-22T10:17:52;29.80;51.30
51215;DHT22;63849;47.546;19.254;2023-06-22T10:20:18;29.80;50.70
51215;DHT22;63849;47.546;19.254;2023-06-22T10:22:45;29.80;53.20
51215;DHT22;63849;47.546;19.254;2023-06-22T10:25:12;29.90;53.20
51215;DHT22;63849;47.546;19.254;2023-06-22T10:27:39;29.90;51.80
51215;DHT22;63849;47.546;19.254;2023-06-22T10:30:09;29.90;50.70
51215;DHT22;63849;47.546;19.254;2023-06-22T10:32:36;29.90;50.30
51215;DHT22;63849;47.546;19.254;2023-06-22T10:35:02;29.90;50.30
51215;DHT22;63849;47.546;19.254;2023-06-22T10:37:28;29.90;54.00
51215;DHT22;63849;47.546;19.254;2023-06-22T10:39:54;30.00;52.30
51215;DHT22;63849;47.546;19.254;2023-06-22T10:42:20;29.90;50.30
51215;DHT22;63849;47.546;19.254;2023-06-22T10:44:46;29.90;51.20
51215;DHT22;63849;47.546;19.254;2023-06-22T10:47:12;29.90;51.70
51215;DHT22;63849;47.546;19.254;2023-06-22T10:49:38;29.90;51.50
51215;DHT22;63849;47.546;19.254;2023-06-22T10:52:08;29.90;50.70
51215;DHT22;63849;47.546;19.254;2023-06-22T10:54:35;29.90;53.00
51215;DHT22;63849;47.546;19.254;2023-06-22T10:57:02;29.90;51.50
51215;DHT22;63849;47.546;19.254;2023-06-22T10:59:28;29.80;49.80
51215;DHT22;63849;47.546;19.254;2023-06-22T11:01:57;29.80;51.00
51215;DHT22;63849;47.546;19.254;2023-06-22T11:04:24;29.80;49.60
51215;DHT22;63849;47.546;19.254;2023-06-22T11:06:50;29.80;52.40
51215;DHT22;63849;47.546;19.254;2023-06-22T11:09:16;29.70;51.00
51215;DHT22;63849;47.546;19.254;2023-06-22T11:11:46;29.70;51.20
51215;DHT22;63849;47.546;19.254;2023-06-22T11:14:12;29.80;53.00
51215;DHT22;63849;47.546;19.254;2023-06-22T11:16:38;29.90;54.10
51215;DHT22;63849;47.546;19.254;2023-06-22T11:19:05;29.90;51.40
51215;DHT22;63849;47.546;19.254;2023-06-22T11:21:31;29.90;50.20
51215;DHT22;63849;47.546;19.254;2023-06-22T11:23:57;29.90;50.80
51215;DHT22;63849;47.546;19.254;2023-06-22T11:26:23;30.00;52.40
51215;DHT22;63849;47.546;19.254;2023-06-22T11:28:48;30.10;51.30
51215;DHT22;63849;47.546;19.254;2023-06-22T11:31:14;30.10;50.70
51215;DHT22;63849;47.546;19.254;2023-06-22T11:33:40;30.00;52.80
51215;DHT22;63849;47.546;19.254;2023-06-22T11:36:06;30.00;53.00
51215;DHT22;63849;47.546;19.254;2023-06-22T11:38:32;30.00;52.90
51215;DHT22;63849;47.546;19.254;2023-06-22T11:40:59;30.10;52.60
51215;DHT22;63849;47.546;19.254;2023-06-22T11:43:25;30.20;51.50
51215;DHT22;63849;47.546;19.254;2023-06-22T11:45:50;30.20;50.60
51215;DHT22;63849;47.546;19.254;2023-06-22T11:48:16;30.20;51.70
51215;DHT22;63849;47.546;19.254;2023-06-22T11:50:42;30.30;51.00
51215;DHT22;63849;47.546;19.254;2023-06-22T11:53:08;30.30;50.60
51215;DHT22;63849;47.546;19.254;2023-06-22T11:55:33;30.40;52.30
51215;DHT22;63849;47.546;19.254;2023-06-22T11:57:59;30.40;52.50
51215;DHT22;63849;47.546;19.254;2023-06-22T12:00:29;30.40;50.70
51215;DHT22;63849;47.546;19.254;2023-06-22T12:02:55;30.40;52.00
51215;DHT22;63849;47.546;19.254;2023-06-22T12:05:21;30.50;50.00
51215;DHT22;63849;47.546;19.254;2023-06-22T12:07:48;30.40;49.30
51215;DHT22;63849;47.546;19.254;2023-06-22T12:10:14;30.30;50.00
51215;DHT22;63849;47.546;19.254;2023-06-22T12:12:40;30.20;51.80
51215;DHT22;63849;47.546;19.254;2023-06-22T12:15:07;30.30;49.90
51215;DHT22;63849;47.546;19.254;2023-06-22T12:17:34;30.30;48.90
51215;DHT22;63849;47.546;19.254;2023-06-22T12:19:59;30.30;48.70
51215;DHT22;63849;47.546;19.254;2023-06-22T12:22:25;30.20;49.20
51215;DHT22;63849;47.546;19.254;2023-06-22T12:24:51;30.20;49.00
51215;DHT22;63849;47.546;19.254;2023-06-22T12:27:17;30.10;49.50
51215;DHT22;63849;47.546;19.254;2023-06-22T12:29:46;30.00;48.70
51215;DHT22;63849;47.546;19.254;2023-06-22T12:32:13;30.00;48.80
51215;DHT22;63849;47.546;19.254;2023-06-22T12:34:39;30.00;50.10
51215;DHT22;63849;47.546;19.254;2023-06-22T12:37:06;30.00;49.50
51215;DHT22;63849;47.546;19.254;2023-06-22T12:39:34;29.90;50.00
51215;DHT22;63849;47.546;19.254;2023-06-22T12:42:01;30.00;50.60
51215;DHT22;63849;47.546;19.254;2023-06-22T12:44:26;30.00;49.40
51215;DHT22;63849;47.546;19.254;2023-06-22T12:46:52;30.00;49.70
51215;DHT22;63849;47.546;19.254;2023-06-22T12:49:18;30.00;50.20
51215;DHT22;63849;47.546;19.254;2023-06-22T12:51:44;30.20;49.90
51215;DHT22;63849;47.546;19.254;2023-06-22T12:54:11;30.30;49.50
51215;DHT22;63849;47.546;19.254;2023-06-22T12:56:37;30.20;49.20
51215;DHT22;63849;47.546;19.254;2023-06-22T12:59:04;30.20;49.10
51215;DHT22;63849;47.546;19.254;2023-06-22T13:01:30;30.10;49.60
51215;DHT22;63849;47.546;19.254;2023-06-22T13:04:00;30.10;49.70
51215;DHT22;63849;47.546;19.254;2023-06-22T13:06:26;30.10;49.50
51215;DHT22;63849;47.546;19.254;2023-06-22T13:08:52;30.10;51.00
51215;DHT22;63849;47.546;19.254;2023-06-22T13:11:18;30.10;51.30
51215;DHT22;63849;47.546;19.254;2023-06-22T13:13:45;30.20;49.50
51215;DHT22;63849;47.546;19.254;2023-06-22T13:16:11;30.10;50.60
51215;DHT22;63849;47.546;19.254;2023-06-22T13:18:36;30.20;51.40
51215;DHT22;63849;47.546;19.254;2023-06-22T13:21:03;30.20;51.00
51215;DHT22;63849;47.546;19.254;2023-06-22T13:23:29;30.20;49.90
51215;DHT22;63849;47.546;19.254;2023-06-22T13:25:55;30.20;49.20
51215;DHT22;63849;47.546;19.254;2023-06-22T13:28:20;30.20;48.70
51215;DHT22;63849;47.546;19.254;2023-06-22T13:30:47;30.20;49.40
51215;DHT22;63849;47.546;19.254;2023-06-22T13:33:14;30.20;50.30
51215;DHT22;63849;47.546;19.254;2023-06-22T13:35:40;30.20;51.60
51215;DHT22;63849;47.546;19.254;2023-06-22T13:38:08;30.10;50.80
51215;DHT22;63849;47.546;19.254;2023-06-22T13:40:35;30.10;50.80
51215;DHT22;63849;47.546;19.254;2023-06-22T13:43:01;30.20;50.50
51215;DHT22;63849;47.546;19.254;2023-06-22T13:45:26;30.20;50.20
51215;DHT22;63849;47.546;19.254;2023-06-22T13:47:52;30.10;51.30
51215;DHT22;63849;47.546;19.254;2023-06-22T13:50:18;30.10;51.50
51215;DHT22;63849;47.546;19.254;2023-06-22T13:52:44;30.10;51.80
51215;DHT22;63849;47.546;19.254;2023-06-22T13:55:10;30.10;51.10
51215;DHT22;63849;47.546;19.254;2023-06-22T13:57:35;30.10;51.40
51215;DHT22;63849;47.546;19.254;2023-06-22T14:00:03;30.10;51.00
51215;DHT22;63849;47.546;19.254;2023-06-22T14:02:30;30.00;50.70
51215;DHT22;63849;47.546;19.254;2023-06-22T14:04:56;30.20;51.50
51215;DHT22;63849;47.546;19.254;2023-06-22T14:07:22;30.20;50.50
51215;DHT22;63849;47.546;19.254;2023-06-22T14:09:50;30.10;50.70
51215;DHT22;63849;47.546;19.254;2023-06-22T14:12:15;30.20;50.90
51215;DHT22;63849;47.546;19.254;2023-06-22T14:14:43;30.10;49.20
51215;DHT22;63849;47.546;19.254;2023-06-22T14:17:09;30.20;50.20
51215;DHT22;63849;47.546;19.254;2023-06-22T14:19:35;30.10;51.90
51215;DHT22;63849;47.546;19.254;2023-06-22T14:22:02;30.10;50.10
51215;DHT22;63849;47.546;19.254;2023-06-22T14:24:27;30.10;49.40
51215;DHT22;63849;47.546;19.254;2023-06-22T14:26:55;30.10;49.50
51215;DHT22;63849;47.546;19.254;2023-06-22T14:29:22;30.10;50.60
51215;DHT22;63849;47.546;19.254;2023-06-22T14:31:48;30.00;51.40
51215;DHT22;63849;47.546;19.254;2023-06-22T14:34:15;30.00;51.30
51215;DHT22;63849;47.546;19.254;2023-06-22T14:36:41;30.00;50.60
51215;DHT22;63849;47.546;19.254;2023-06-22T14:39:08;30.00;50.30
51215;DHT22;63849;47.546;19.254;2023-06-22T14:41:33;30.00;49.50
51215;DHT22;63849;47.546;19.254;2023-06-22T14:43:59;30.00;49.50
51215;DHT22;63849;47.546;19.254;2023-06-22T14:46:25;29.90;48.80
51215;DHT22;63849;47.546;19.254;2023-06-22T14:48:51;30.00;48.50
51215;DHT22;63849;47.546;19.254;2023-06-22T14:51:17;30.00;49.40
51215;DHT22;63849;47.546;19.254;2023-06-22T14:53:44;29.90;49.90
51215;DHT22;63849;47.546;19.254;2023-06-22T14:56:09;29.90;49.40
51215;DHT22;63849;47.546;19.254;2023-06-22T14:58:35;29.90;49.30
51215;DHT22;63849;47.546;19.254;2023-06-22T15:01:02;29.90;49.70
51215;DHT22;63849;47.546;19.254;2023-06-22T15:03:29;30.00;49.00
51215;DHT22;63849;47.546;19.254;2023-06-22T15:05:56;29.90;48.50
51215;DHT22;63849;47.546;19.254;2023-06-22T15:08:22;30.00;50.30
51215;DHT22;63849;47.546;19.254;2023-06-22T15:10:48;29.90;50.60
51215;DHT22;63849;47.546;19.254;2023-06-22T15:13:14;29.90;49.90
51215;DHT22;63849;47.546;19.254;2023-06-22T15:15:39;29.90;50.40
51215;DHT22;63849;47.546;19.254;2023-06-22T15:18:05;29.90;49.90